sensor_id;sensor_type;location;lat;lon;timestamp;pressure;altitude;pressure_sealevel;temperature;humidity
250;BME280;109;19.806;-70.704;2023-03-20T00:01:54;101617.41;;;24.39;60.53
250;BME280;109;19.806;-70.704;2023-03-20T00:04:21;101603.41;;;24.54;60.53
250;BME280;109;19.806;-70.704;2023-03-20T00:06:48;101614.31;;;24.71;60.40
250;BME280;109;19.806;-70.704;2023-03-20T00:09:14;101615.19;;;24.72;60.10
250;BME280;109;19.806;-70.704;2023-03-20T00:11:49;101621.09;;;24.58;60.46
250;BME280;109;19.806;-70.704;2023-03-20T00:14:19;101621.78;;;24.63;60.04
250;BME280;109;19.806;-70.704;2023-03-20T00:16:48;101628.44;;;24.53;60.00
250;BME280;109;19.806;-70.704;2023-03-20T00:19:20;101629.38;;;24.52;59.90
250;BME280;109;19.806;-70.704;2023-03-20T00:21:49;101631.56;;;24.64;59.99
250;BME280;109;19.806;-70.704;2023-03-20T00:24:16;101631.25;;;24.72;59.45
250;BME280;109;19.806;-70.704;2023-03-20T00:26:44;101635.41;;;24.81;59.16
250;BME280;109;19.806;-70.704;2023-03-20T00:29:27;101644.56;;;24.97;59.03
250;BME280;109;19.806;-70.704;2023-03-20T00:31:56;101644.44;;;25.00;59.06
250;BME280;109;19.806;-70.704;2023-03-20T00:34:26;101649.25;;;24.92;59.63
250;BME280;109;19.806;-70.704;2023-03-20T00:36:54;101647.16;;;24.77;60.25
250;BME280;109;19.806;-70.704;2023-03-20T00:39:21;101647.53;;;24.89;59.87
250;BME280;109;19.806;-70.704;2023-03-20T00:42:03;101655.59;;;24.66;60.58
250;BME280;109;19.806;-70.704;2023-03-20T00:44:35;101659.25;;;24.63;60.70
250;BME280;109;19.806;-70.704;2023-03-20T00:47:16;101657.50;;;24.62;61.13
250;BME280;109;19.806;-70.704;2023-03-20T00:49:46;101663.91;;;24.35;61.26
250;BME280;109;19.806;-70.704;2023-03-20T00:52:14;101658.34;;;24.41;61.25
250;BME280;109;19.806;-70.704;2023-03-20T00:54:42;101666.44;;;24.39;61.70
250;BME280;109;19.806;-70.704;2023-03-20T00:57:25;101673.53;;;24.40;61.34
250;BME280;109;19.806;-70.704;2023-03-20T01:00:50;101676.44;;;24.34;61.68
250;BME280;109;19.806;-70.704;2023-03-20T01:03:00;101671.03;;;24.36;61.58
250;BME280;109;19.806;-70.704;2023-03-20T01:05:36;101670.50;;;24.26;62.01
250;BME280;109;19.806;-70.704;2023-03-20T01:08:09;101674.97;;;24.26;61.92
250;BME280;109;19.806;-70.704;2023-03-20T01:10:46;101672.47;;;24.21;61.84
250;BME280;109;19.806;-70.704;2023-03-20T01:13:28;101677.31;;;24.35;61.87
250;BME280;109;19.806;-70.704;2023-03-20T01:16:01;101674.53;;;24.38;61.87
250;BME280;109;19.806;-70.704;2023-03-20T01:18:27;101682.19;;;24.47;61.74
250;BME280;109;19.806;-70.704;2023-03-20T01:21:01;101686.19;;;24.59;61.12
250;BME280;109;19.806;-70.704;2023-03-20T01:23:28;101678.84;;;24.42;61.60
250;BME280;109;19.806;-70.704;2023-03-20T01:26:01;101687.38;;;24.52;61.43
250;BME280;109;19.806;-70.704;2023-03-20T01:28:29;101688.19;;;24.54;61.40
250;BME280;109;19.806;-70.704;2023-03-20T01:31:03;101699.69;;;24.32;61.22
250;BME280;109;19.806;-70.704;2023-03-20T01:33:31;101693.81;;;24.46;60.84
250;BME280;109;19.806;-70.704;2023-03-20T01:36:04;101699.25;;;24.20;61.22
250;BME280;109;19.806;-70.704;2023-03-20T01:38:31;101698.13;;;24.27;61.31
250;BME280;109;19.806;-70.704;2023-03-20T01:41:16;101699.81;;;24.29;61.52
250;BME280;109;19.806;-70.704;2023-03-20T01:43:57;101691.59;;;24.34;61.42
250;BME280;109;19.806;-70.704;2023-03-20T01:46:29;101690.69;;;24.35;61.19
250;BME280;109;19.806;-70.704;2023-03-20T01:51:55;101697.88;;;24.08;61.74
250;BME280;109;19.806;-70.704;2023-03-20T01:54:26;101695.84;;;23.91;62.01
250;BME280;109;19.806;-70.704;2023-03-20T01:57:07;101687.97;;;23.87;62.18
250;BME280;109;19.806;-70.704;2023-03-20T01:59:44;101698.66;;;23.87;62.33
250;BME280;109;19.806;-70.704;2023-03-20T02:02:22;101697.72;;;23.88;62.33
250;BME280;109;19.806;-70.704;2023-03-20T02:05:03;101707.16;;;23.98;62.16
250;BME280;109;19.806;-70.704;2023-03-20T02:07:39;101701.16;;;24.18;61.74
250;BME280;109;19.806;-70.704;2023-03-20T02:10:17;101702.34;;;24.08;61.61
250;BME280;109;19.806;-70.704;2023-03-20T02:13:03;101703.81;;;24.18;61.57
250;BME280;109;19.806;-70.704;2023-03-20T02:18:50;101714.38;;;24.21;61.53
250;BME280;109;19.806;-70.704;2023-03-20T02:36:19;101714.09;;;24.53;60.80
250;BME280;109;19.806;-70.704;2023-03-20T02:39:03;101725.31;;;24.39;60.93
250;BME280;109;19.806;-70.704;2023-03-20T02:41:53;101726.19;;;24.40;61.04
250;BME280;109;19.806;-70.704;2023-03-20T02:44:50;101720.81;;;24.17;61.38
250;BME280;109;19.806;-70.704;2023-03-20T02:47:39;101726.59;;;24.29;61.41
250;BME280;109;19.806;-70.704;2023-03-20T02:57:03;101726.09;;;24.18;61.58
250;BME280;109;19.806;-70.704;2023-03-20T02:59:40;101725.09;;;24.21;61.18
250;BME280;109;19.806;-70.704;2023-03-20T03:02:19;101725.63;;;24.05;61.75
250;BME280;109;19.806;-70.704;2023-03-20T03:04:59;101727.03;;;24.17;61.56
250;BME280;109;19.806;-70.704;2023-03-20T03:07:36;101729.47;;;24.23;61.81
250;BME280;109;19.806;-70.704;2023-03-20T03:10:07;101722.47;;;24.19;61.90
250;BME280;109;19.806;-70.704;2023-03-20T03:12:45;101732.38;;;24.17;61.59
250;BME280;109;19.806;-70.704;2023-03-20T03:15:33;101734.25;;;24.14;62.12
250;BME280;109;19.806;-70.704;2023-03-20T03:18:12;101736.97;;;24.12;62.09
250;BME280;109;19.806;-70.704;2023-03-20T03:20:51;101743.63;;;24.00;62.02
250;BME280;109;19.806;-70.704;2023-03-20T03:23:35;101743.47;;;24.05;62.01
250;BME280;109;19.806;-70.704;2023-03-20T03:26:24;101736.00;;;24.15;61.77
250;BME280;109;19.806;-70.704;2023-03-20T03:29:26;101744.91;;;24.15;61.73
250;BME280;109;19.806;-70.704;2023-03-20T03:32:00;101742.28;;;24.14;61.56
250;BME280;109;19.806;-70.704;2023-03-20T03:34:34;101739.53;;;24.15;61.70
250;BME280;109;19.806;-70.704;2023-03-20T03:37:27;101740.16;;;24.23;61.67
250;BME280;109;19.806;-70.704;2023-03-20T03:45:53;101731.34;;;23.95;61.79
250;BME280;109;19.806;-70.704;2023-03-20T03:48:38;101727.78;;;23.94;61.80
250;BME280;109;19.806;-70.704;2023-03-20T03:51:15;101737.06;;;23.84;61.90
250;BME280;109;19.806;-70.704;2023-03-20T03:54:20;101730.69;;;23.88;62.04
250;BME280;109;19.806;-70.704;2023-03-20T03:57:46;101719.13;;;23.88;61.79
250;BME280;109;19.806;-70.704;2023-03-20T04:00:24;101732.13;;;23.72;62.15
250;BME280;109;19.806;-70.704;2023-03-20T04:02:58;101719.66;;;23.73;62.32
250;BME280;109;19.806;-70.704;2023-03-20T04:05:28;101718.69;;;23.75;62.13
250;BME280;109;19.806;-70.704;2023-03-20T04:08:06;101712.41;;;23.76;62.13
250;BME280;109;19.806;-70.704;2023-03-20T04:10:33;101708.38;;;23.89;62.21
250;BME280;109;19.806;-70.704;2023-03-20T04:13:07;101702.69;;;23.98;61.72
250;BME280;109;19.806;-70.704;2023-03-20T04:15:35;101700.56;;;23.83;61.63
250;BME280;109;19.806;-70.704;2023-03-20T04:18:18;101694.22;;;23.86;61.93
250;BME280;109;19.806;-70.704;2023-03-20T04:20:51;101698.47;;;23.93;61.74
250;BME280;109;19.806;-70.704;2023-03-20T04:23:18;101686.75;;;23.95;61.60
250;BME280;109;19.806;-70.704;2023-03-20T04:25:51;101695.84;;;23.91;61.62
250;BME280;109;19.806;-70.704;2023-03-20T04:28:18;101690.03;;;24.03;61.48
250;BME280;109;19.806;-70.704;2023-03-20T04:31:22;101699.47;;;23.89;61.33
250;BME280;109;19.806;-70.704;2023-03-20T04:34:25;101686.53;;;24.01;61.03
250;BME280;109;19.806;-70.704;2023-03-20T04:37:27;101696.97;;;23.84;61.41
250;BME280;109;19.806;-70.704;2023-03-20T04:40:06;101693.78;;;23.73;61.44
250;BME280;109;19.806;-70.704;2023-03-20T04:42:41;101685.34;;;23.85;61.18
250;BME280;109;19.806;-70.704;2023-03-20T04:45:28;101697.19;;;23.78;60.96
250;BME280;109;19.806;-70.704;2023-03-20T04:48:02;101693.75;;;23.75;60.83
250;BME280;109;19.806;-70.704;2023-03-20T04:50:29;101692.81;;;23.76;60.41
250;BME280;109;19.806;-70.704;2023-03-20T04:53:03;101695.91;;;23.63;60.82
250;BME280;109;19.806;-70.704;2023-03-20T04:55:29;101689.69;;;23.63;60.73
250;BME280;109;19.806;-70.704;2023-03-20T04:58:03;101692.00;;;23.74;60.04
250;BME280;109;19.806;-70.704;2023-03-20T05:00:30;101683.16;;;23.72;60.11
250;BME280;109;19.806;-70.704;2023-03-20T05:03:03;101688.16;;;23.54;59.77
250;BME280;109;19.806;-70.704;2023-03-20T05:05:31;101679.16;;;23.58;59.79
250;BME280;109;19.806;-70.704;2023-03-20T05:08:05;101678.78;;;23.69;59.78
250;BME280;109;19.806;-70.704;2023-03-20T05:10:35;101676.34;;;23.63;59.32
250;BME280;109;19.806;-70.704;2023-03-20T05:13:39;101673.13;;;23.52;59.17
250;BME280;109;19.806;-70.704;2023-03-20T05:16:31;101670.69;;;23.44;59.35
250;BME280;109;19.806;-70.704;2023-03-20T05:19:23;101678.53;;;23.50;59.27
250;BME280;109;19.806;-70.704;2023-03-20T05:22:05;101673.09;;;23.53;59.10
250;BME280;109;19.806;-70.704;2023-03-20T05:25:10;101683.00;;;23.50;59.10
250;BME280;109;19.806;-70.704;2023-03-20T05:28:01;101674.16;;;23.48;59.39
250;BME280;109;19.806;-70.704;2023-03-20T05:30:48;101663.88;;;23.35;59.25
250;BME280;109;19.806;-70.704;2023-03-20T05:33:44;101657.19;;;23.49;59.11
250;BME280;109;19.806;-70.704;2023-03-20T05:36:56;101660.50;;;23.55;58.86
250;BME280;109;19.806;-70.704;2023-03-20T05:39:49;101658.31;;;23.68;59.05
250;BME280;109;19.806;-70.704;2023-03-20T05:42:31;101645.78;;;23.70;58.69
250;BME280;109;19.806;-70.704;2023-03-20T05:45:27;101647.63;;;23.68;58.65
250;BME280;109;19.806;-70.704;2023-03-20T05:48:09;101638.91;;;23.63;58.89
250;BME280;109;19.806;-70.704;2023-03-20T05:51:14;101642.69;;;23.56;58.80
250;BME280;109;19.806;-70.704;2023-03-20T05:54:05;101648.75;;;23.62;58.81
250;BME280;109;19.806;-70.704;2023-03-20T05:56:57;101647.03;;;23.60;58.77
250;BME280;109;19.806;-70.704;2023-03-20T05:59:56;101643.38;;;23.62;58.97
250;BME280;109;19.806;-70.704;2023-03-20T06:02:46;101635.72;;;23.52;58.83
250;BME280;109;19.806;-70.704;2023-03-20T06:05:42;101635.72;;;23.52;58.80
250;BME280;109;19.806;-70.704;2023-03-20T06:08:15;101630.19;;;23.58;58.70
250;BME280;109;19.806;-70.704;2023-03-20T06:10:42;101637.63;;;23.48;58.74
250;BME280;109;19.806;-70.704;2023-03-20T06:13:16;101626.88;;;23.50;58.60
250;BME280;109;19.806;-70.704;2023-03-20T06:15:42;101629.09;;;23.37;58.71
250;BME280;109;19.806;-70.704;2023-03-20T06:18:17;101629.97;;;23.38;58.95
250;BME280;109;19.806;-70.704;2023-03-20T06:20:43;101626.38;;;23.39;58.69
250;BME280;109;19.806;-70.704;2023-03-20T06:23:16;101625.25;;;23.19;59.29
250;BME280;109;19.806;-70.704;2023-03-20T06:25:43;101620.84;;;23.43;58.94
250;BME280;109;19.806;-70.704;2023-03-20T06:28:18;101616.53;;;23.41;58.68
250;BME280;109;19.806;-70.704;2023-03-20T06:30:50;101620.25;;;23.35;58.70
250;BME280;109;19.806;-70.704;2023-03-20T06:33:25;101613.72;;;23.44;58.84
250;BME280;109;19.806;-70.704;2023-03-20T06:35:57;101616.28;;;23.47;58.96
250;BME280;109;19.806;-70.704;2023-03-20T06:38:31;101619.94;;;23.44;58.97
250;BME280;109;19.806;-70.704;2023-03-20T06:41:03;101613.75;;;23.42;58.68
250;BME280;109;19.806;-70.704;2023-03-20T06:43:37;101607.69;;;23.39;58.79
250;BME280;109;19.806;-70.704;2023-03-20T06:46:24;101617.22;;;23.46;58.87
250;BME280;109;19.806;-70.704;2023-03-20T06:48:57;101604.13;;;23.38;58.78
250;BME280;109;19.806;-70.704;2023-03-20T06:51:31;101602.50;;;23.34;58.93
250;BME280;109;19.806;-70.704;2023-03-20T06:54:05;101602.09;;;23.45;58.64
250;BME280;109;19.806;-70.704;2023-03-20T06:56:32;101598.44;;;23.22;58.95
250;BME280;109;19.806;-70.704;2023-03-20T06:59:04;101594.75;;;23.26;59.01
250;BME280;109;19.806;-70.704;2023-03-20T07:01:31;101591.31;;;23.23;58.92
250;BME280;109;19.806;-70.704;2023-03-20T07:04:06;101593.00;;;23.25;59.01
250;BME280;109;19.806;-70.704;2023-03-20T07:06:39;101585.09;;;23.22;58.87
250;BME280;109;19.806;-70.704;2023-03-20T07:09:13;101583.66;;;22.84;59.69
250;BME280;109;19.806;-70.704;2023-03-20T07:11:39;101579.44;;;22.77;60.31
250;BME280;109;19.806;-70.704;2023-03-20T07:14:14;101568.66;;;22.80;60.12
250;BME280;109;19.806;-70.704;2023-03-20T07:16:46;101571.50;;;22.76;60.76
250;BME280;109;19.806;-70.704;2023-03-20T07:19:20;101567.13;;;22.73;60.46
250;BME280;109;19.806;-70.704;2023-03-20T07:21:57;101567.38;;;22.65;61.00
250;BME280;109;19.806;-70.704;2023-03-20T07:24:38;101565.22;;;22.77;60.60
250;BME280;109;19.806;-70.704;2023-03-20T07:27:11;101545.09;;;22.93;60.49
250;BME280;109;19.806;-70.704;2023-03-20T07:29:38;101546.75;;;22.97;60.61
250;BME280;109;19.806;-70.704;2023-03-20T07:32:13;101546.66;;;22.74;60.77
250;BME280;109;19.806;-70.704;2023-03-20T07:34:54;101541.56;;;22.66;61.36
250;BME280;109;19.806;-70.704;2023-03-20T07:37:27;101539.56;;;22.73;61.18
250;BME280;109;19.806;-70.704;2023-03-20T07:39:59;101540.69;;;22.65;60.78
250;BME280;109;19.806;-70.704;2023-03-20T07:42:37;101547.06;;;22.61;61.26
250;BME280;109;19.806;-70.704;2023-03-20T07:45:49;101549.16;;;22.78;60.44
250;BME280;109;19.806;-70.704;2023-03-20T07:48:22;101545.56;;;22.79;60.59
250;BME280;109;19.806;-70.704;2023-03-20T07:50:49;101545.28;;;22.62;60.93
250;BME280;109;19.806;-70.704;2023-03-20T07:53:22;101547.94;;;22.62;61.12
250;BME280;109;19.806;-70.704;2023-03-20T07:55:49;101546.94;;;22.64;61.26
250;BME280;109;19.806;-70.704;2023-03-20T07:58:22;101542.53;;;22.63;60.90
250;BME280;109;19.806;-70.704;2023-03-20T08:00:49;101545.88;;;22.70;60.65
250;BME280;109;19.806;-70.704;2023-03-20T08:03:22;101552.50;;;22.58;61.05
250;BME280;109;19.806;-70.704;2023-03-20T08:05:49;101543.69;;;22.55;61.11
250;BME280;109;19.806;-70.704;2023-03-20T08:08:22;101547.25;;;22.55;61.36
250;BME280;109;19.806;-70.704;2023-03-20T08:10:49;101550.81;;;22.54;61.35
250;BME280;109;19.806;-70.704;2023-03-20T08:13:22;101549.09;;;22.53;61.05
250;BME280;109;19.806;-70.704;2023-03-20T08:15:49;101543.66;;;22.56;61.21
250;BME280;109;19.806;-70.704;2023-03-20T08:18:23;101541.78;;;22.60;60.85
250;BME280;109;19.806;-70.704;2023-03-20T08:20:50;101537.25;;;22.62;60.81
250;BME280;109;19.806;-70.704;2023-03-20T08:23:31;101547.00;;;22.63;60.90
250;BME280;109;19.806;-70.704;2023-03-20T08:26:04;101551.25;;;22.69;60.69
250;BME280;109;19.806;-70.704;2023-03-20T08:28:31;101547.09;;;22.60;60.86
250;BME280;109;19.806;-70.704;2023-03-20T08:31:08;101541.81;;;22.58;60.95
250;BME280;109;19.806;-70.704;2023-03-20T08:33:42;101548.22;;;22.53;61.23
250;BME280;109;19.806;-70.704;2023-03-20T08:36:10;101545.19;;;22.63;60.61
250;BME280;109;19.806;-70.704;2023-03-20T08:38:43;101556.94;;;22.58;60.40
250;BME280;109;19.806;-70.704;2023-03-20T08:41:10;101562.38;;;22.55;60.72
250;BME280;109;19.806;-70.704;2023-03-20T08:43:44;101555.84;;;22.63;60.20
250;BME280;109;19.806;-70.704;2023-03-20T08:46:30;101554.72;;;22.72;60.33
250;BME280;109;19.806;-70.704;2023-03-20T08:49:03;101558.38;;;22.68;60.49
250;BME280;109;19.806;-70.704;2023-03-20T08:51:30;101561.00;;;22.70;60.66
250;BME280;109;19.806;-70.704;2023-03-20T08:54:04;101564.50;;;22.72;60.53
250;BME280;109;19.806;-70.704;2023-03-20T08:56:31;101567.13;;;22.73;60.82
250;BME280;109;19.806;-70.704;2023-03-20T08:59:11;101561.78;;;22.73;60.59
250;BME280;109;19.806;-70.704;2023-03-20T09:01:45;101564.50;;;22.72;60.47
250;BME280;109;19.806;-70.704;2023-03-20T09:04:12;101572.66;;;22.67;60.58
250;BME280;109;19.806;-70.704;2023-03-20T09:06:45;101574.84;;;22.54;60.97
250;BME280;109;19.806;-70.704;2023-03-20T09:09:12;101581.09;;;22.53;61.30
250;BME280;109;19.806;-70.704;2023-03-20T09:11:47;101588.97;;;22.58;61.33
250;BME280;109;19.806;-70.704;2023-03-20T09:14:14;101580.72;;;22.65;60.97
250;BME280;109;19.806;-70.704;2023-03-20T09:16:48;101583.00;;;22.50;61.12
250;BME280;109;19.806;-70.704;2023-03-20T09:19:15;101594.34;;;22.56;61.46
250;BME280;109;19.806;-70.704;2023-03-20T09:21:48;101589.41;;;22.44;61.23
250;BME280;109;19.806;-70.704;2023-03-20T09:24:15;101599.69;;;22.25;61.87
250;BME280;109;19.806;-70.704;2023-03-20T09:26:49;101597.16;;;22.22;61.80
250;BME280;109;19.806;-70.704;2023-03-20T09:29:15;101598.38;;;22.11;61.84
250;BME280;109;19.806;-70.704;2023-03-20T09:31:48;101604.34;;;22.19;62.02
250;BME280;109;19.806;-70.704;2023-03-20T09:34:15;101605.09;;;22.24;61.82
250;BME280;109;19.806;-70.704;2023-03-20T09:36:49;101602.06;;;22.07;62.27
250;BME280;109;19.806;-70.704;2023-03-20T09:39:15;101606.63;;;22.02;62.19
250;BME280;109;19.806;-70.704;2023-03-20T09:42:01;101608.97;;;22.12;62.15
250;BME280;109;19.806;-70.704;2023-03-20T09:45:00;101611.44;;;22.20;62.23
250;BME280;109;19.806;-70.704;2023-03-20T09:47:39;101617.81;;;22.14;62.40
250;BME280;109;19.806;-70.704;2023-03-20T09:50:33;101617.19;;;22.06;62.50
250;BME280;109;19.806;-70.704;2023-03-20T09:53:21;101622.63;;;22.02;62.67
250;BME280;109;19.806;-70.704;2023-03-20T09:55:56;101628.72;;;21.73;63.04
250;BME280;109;19.806;-70.704;2023-03-20T09:58:33;101624.66;;;21.93;62.34
250;BME280;109;19.806;-70.704;2023-03-20T10:01:12;101624.41;;;22.01;61.85
250;BME280;109;19.806;-70.704;2023-03-20T10:03:52;101642.16;;;22.02;61.83
250;BME280;109;19.806;-70.704;2023-03-20T10:06:27;101633.16;;;22.06;61.54
250;BME280;109;19.806;-70.704;2023-03-20T10:08:54;101636.66;;;22.08;61.52
250;BME280;109;19.806;-70.704;2023-03-20T10:14:49;101645.09;;;22.24;61.58
250;BME280;109;19.806;-70.704;2023-03-20T10:19:56;101658.94;;;22.06;61.97
250;BME280;109;19.806;-70.704;2023-03-20T10:22:35;101665.59;;;21.91;62.06
250;BME280;109;19.806;-70.704;2023-03-20T10:25:32;101656.88;;;22.15;61.25
250;BME280;109;19.806;-70.704;2023-03-20T10:28:13;101664.56;;;22.26;61.35
250;BME280;109;19.806;-70.704;2023-03-20T10:33:25;101661.91;;;22.26;61.12
250;BME280;109;19.806;-70.704;2023-03-20T10:40:28;101668.75;;;21.71;62.30
250;BME280;109;19.806;-70.704;2023-03-20T10:43:25;101673.31;;;22.00;61.58
250;BME280;109;19.806;-70.704;2023-03-20T10:48:49;101685.06;;;21.93;62.29
250;BME280;109;19.806;-70.704;2023-03-20T10:51:34;101689.97;;;21.76;62.33
250;BME280;109;19.806;-70.704;2023-03-20T10:56:47;101690.09;;;21.71;62.45
250;BME280;109;19.806;-70.704;2023-03-20T10:59:25;101686.97;;;21.88;62.34
250;BME280;109;19.806;-70.704;2023-03-20T11:01:52;101684.88;;;21.99;62.15
250;BME280;109;19.806;-70.704;2023-03-20T11:04:19;101689.13;;;22.08;62.08
250;BME280;109;19.806;-70.704;2023-03-20T11:06:59;101694.25;;;22.14;62.01
250;BME280;109;19.806;-70.704;2023-03-20T11:09:29;101694.31;;;22.12;61.78
250;BME280;109;19.806;-70.704;2023-03-20T11:12:00;101699.06;;;22.01;62.58
250;BME280;109;19.806;-70.704;2023-03-20T11:14:38;101695.94;;;21.85;62.38
250;BME280;109;19.806;-70.704;2023-03-20T11:17:05;101701.22;;;21.87;62.46
250;BME280;109;19.806;-70.704;2023-03-20T11:19:39;101708.19;;;21.92;62.81
250;BME280;109;19.806;-70.704;2023-03-20T11:22:29;101711.31;;;22.08;62.67
250;BME280;109;19.806;-70.704;2023-03-20T11:24:57;101710.81;;;22.25;61.89
250;BME280;109;19.806;-70.704;2023-03-20T11:27:29;101712.03;;;22.47;61.63
250;BME280;109;19.806;-70.704;2023-03-20T11:29:56;101714.50;;;22.53;61.57
250;BME280;109;19.806;-70.704;2023-03-20T11:32:34;101712.44;;;22.63;61.41
250;BME280;109;19.806;-70.704;2023-03-20T11:37:50;101718.09;;;22.82;61.39
250;BME280;109;19.806;-70.704;2023-03-20T11:40:29;101716.28;;;22.82;61.05
250;BME280;109;19.806;-70.704;2023-03-20T11:43:03;101712.00;;;22.77;61.16
250;BME280;109;19.806;-70.704;2023-03-20T11:45:35;101714.59;;;22.80;61.46
250;BME280;109;19.806;-70.704;2023-03-20T11:48:03;101718.09;;;23.11;61.17
250;BME280;109;19.806;-70.704;2023-03-20T11:50:37;101707.22;;;23.17;60.89
250;BME280;109;19.806;-70.704;2023-03-20T11:56:14;101706.78;;;23.57;59.49
250;BME280;109;19.806;-70.704;2023-03-20T12:01:26;101710.72;;;23.46;58.65
250;BME280;109;19.806;-70.704;2023-03-20T12:06:36;101712.41;;;23.76;58.77
250;BME280;109;19.806;-70.704;2023-03-20T12:11:46;101730.53;;;23.93;58.17
250;BME280;109;19.806;-70.704;2023-03-20T12:14:34;101736.53;;;23.99;58.33
250;BME280;109;19.806;-70.704;2023-03-20T12:18:02;101731.75;;;24.34;58.27
250;BME280;109;19.806;-70.704;2023-03-20T12:23:27;101746.63;;;24.18;57.13
250;BME280;109;19.806;-70.704;2023-03-20T12:26:02;101746.28;;;24.27;57.25
250;BME280;109;19.806;-70.704;2023-03-20T12:28:40;101751.78;;;24.22;57.01
250;BME280;109;19.806;-70.704;2023-03-20T12:36:37;101752.22;;;24.58;56.45
250;BME280;109;19.806;-70.704;2023-03-20T12:39:16;101756.59;;;24.61;56.64
250;BME280;109;19.806;-70.704;2023-03-20T12:44:50;101764.38;;;24.68;56.30
250;BME280;109;19.806;-70.704;2023-03-20T12:58:37;101779.75;;;24.87;56.28
250;BME280;109;19.806;-70.704;2023-03-20T13:06:47;101776.25;;;25.08;56.41
250;BME280;109;19.806;-70.704;2023-03-20T13:15:03;101781.56;;;25.75;56.10
250;BME280;109;19.806;-70.704;2023-03-20T13:20:50;101782.22;;;26.02;55.71
250;BME280;109;19.806;-70.704;2023-03-20T13:23:29;101783.00;;;26.26;55.30
250;BME280;109;19.806;-70.704;2023-03-20T13:29:14;101786.06;;;26.37;54.61
250;BME280;109;19.806;-70.704;2023-03-20T13:37:39;101798.75;;;26.74;54.35
250;BME280;109;19.806;-70.704;2023-03-20T13:40:13;101799.25;;;26.82;54.86
250;BME280;109;19.806;-70.704;2023-03-20T13:45:41;101797.84;;;27.12;53.79
250;BME280;109;19.806;-70.704;2023-03-20T13:51:20;101801.63;;;27.27;52.97
250;BME280;109;19.806;-70.704;2023-03-20T13:54:14;101804.69;;;27.01;53.28
250;BME280;109;19.806;-70.704;2023-03-20T14:05:34;101801.22;;;27.89;52.81
250;BME280;109;19.806;-70.704;2023-03-20T14:07:57;101805.06;;;28.03;52.08
250;BME280;109;19.806;-70.704;2023-03-20T14:12:59;101805.34;;;27.97;52.18
250;BME280;109;19.806;-70.704;2023-03-20T14:15:30;101805.31;;;27.79;52.98
250;BME280;109;19.806;-70.704;2023-03-20T14:18:03;101802.53;;;27.64;53.22
250;BME280;109;19.806;-70.704;2023-03-20T14:20:36;101804.28;;;27.65;53.74
250;BME280;109;19.806;-70.704;2023-03-20T14:23:04;101805.06;;;27.67;53.41
250;BME280;109;19.806;-70.704;2023-03-20T14:25:39;101808.63;;;27.67;54.39
250;BME280;109;19.806;-70.704;2023-03-20T14:33:24;101809.59;;;27.47;54.79
250;BME280;109;19.806;-70.704;2023-03-20T14:36:19;101813.13;;;27.67;54.04
250;BME280;109;19.806;-70.704;2023-03-20T14:39:01;101810.28;;;27.70;54.70
250;BME280;109;19.806;-70.704;2023-03-20T14:45:15;101807.00;;;27.82;52.54
250;BME280;109;19.806;-70.704;2023-03-20T14:50:35;101811.53;;;27.99;52.84
250;BME280;109;19.806;-70.704;2023-03-20T14:53:20;101809.34;;;27.88;56.16
250;BME280;109;19.806;-70.704;2023-03-20T14:55:52;101807.72;;;27.49;57.53
250;BME280;109;19.806;-70.704;2023-03-20T14:58:51;101815.25;;;27.41;57.30
250;BME280;109;19.806;-70.704;2023-03-20T15:01:23;101819.78;;;27.22;58.23
250;BME280;109;19.806;-70.704;2023-03-20T15:06:26;101818.16;;;27.18;58.57
250;BME280;109;19.806;-70.704;2023-03-20T15:08:57;101812.13;;;27.69;57.45
250;BME280;109;19.806;-70.704;2023-03-20T15:11:25;101822.19;;;27.47;58.13
250;BME280;109;19.806;-70.704;2023-03-20T15:13:53;101816.19;;;27.59;57.33
250;BME280;109;19.806;-70.704;2023-03-20T15:16:29;101823.31;;;27.60;57.61
250;BME280;109;19.806;-70.704;2023-03-20T15:18:56;101819.59;;;27.63;57.92
250;BME280;109;19.806;-70.704;2023-03-20T15:21:36;101812.69;;;27.57;58.06
250;BME280;109;19.806;-70.704;2023-03-20T15:24:03;101808.94;;;27.42;57.05
250;BME280;109;19.806;-70.704;2023-03-20T15:26:32;101809.97;;;27.40;58.32
250;BME280;109;19.806;-70.704;2023-03-20T15:29:05;101807.19;;;27.41;58.29
250;BME280;109;19.806;-70.704;2023-03-20T15:31:37;101814.44;;;27.58;58.51
250;BME280;109;19.806;-70.704;2023-03-20T15:34:26;101812.22;;;27.49;57.99
250;BME280;109;19.806;-70.704;2023-03-20T15:36:58;101806.69;;;27.33;58.27
250;BME280;109;19.806;-70.704;2023-03-20T15:39:27;101798.84;;;27.47;59.08
250;BME280;109;19.806;-70.704;2023-03-20T15:42:08;101805.25;;;27.45;58.11
250;BME280;109;19.806;-70.704;2023-03-20T15:44:40;101801.22;;;27.35;58.46
250;BME280;109;19.806;-70.704;2023-03-20T15:49:38;101798.09;;;27.63;57.95
250;BME280;109;19.806;-70.704;2023-03-20T15:52:43;101805.09;;;27.48;56.76
250;BME280;109;19.806;-70.704;2023-03-20T15:55:19;101802.34;;;27.31;57.75
250;BME280;109;19.806;-70.704;2023-03-20T15:57:47;101804.16;;;27.30;58.15
250;BME280;109;19.806;-70.704;2023-03-20T16:00:33;101805.88;;;27.31;58.62
250;BME280;109;19.806;-70.704;2023-03-20T16:03:05;101801.00;;;27.58;58.37
250;BME280;109;19.806;-70.704;2023-03-20T16:05:34;101806.63;;;27.53;58.30
250;BME280;109;19.806;-70.704;2023-03-20T16:08:13;101803.19;;;27.31;57.77
250;BME280;109;19.806;-70.704;2023-03-20T16:10:42;101804.38;;;27.26;57.67
250;BME280;109;19.806;-70.704;2023-03-20T16:13:13;101808.66;;;27.30;58.02
250;BME280;109;19.806;-70.704;2023-03-20T16:15:42;101805.16;;;27.46;57.99
250;BME280;109;19.806;-70.704;2023-03-20T16:18:15;101802.09;;;27.35;57.61
250;BME280;109;19.806;-70.704;2023-03-20T16:20:53;101805.19;;;27.28;57.26
250;BME280;109;19.806;-70.704;2023-03-20T16:23:36;101795.94;;;27.52;57.47
250;BME280;109;19.806;-70.704;2023-03-20T16:26:06;101783.84;;;27.61;57.47